Terminal Aerodrome Forecast
Issued by NWS

Current Version | Previous Version | Graphics & Text | Print | Product List | Glossary On
Versions: 1 2 3 4 5 6 7 8 9 10 11 12 13 14 15 16 17 18 19 20 21 22 23 24 25 26 27
000
FTUS41 KRLX 231725
TAFCKB
TAF
KCKB 231725Z 2318/2418 35005KT P6SM BKN025
      TEMPO 2321/2323 SCT025
     FM240000 02004KT P6SM FEW250
     FM240800 00000KT 4SM BR SCT250
     FM241300 00000KT 6SM BR SCT250=

USA.gov is the U.S. government's official web portal to all federal, state and local government web resources and services.